createdAt,value
2022-08-17T00:00:42.724Z,10.70
2022-08-17T00:03:08.239Z,12.00
2022-08-17T00:05:42.364Z,11.73
2022-08-17T00:08:11.988Z,9.20
2022-08-17T00:10:39.968Z,12.67
2022-08-17T00:13:09.630Z,10.10
2022-08-17T00:15:38.234Z,10.73
2022-08-17T00:19:00.360Z,14.50
2022-08-17T00:20:55.742Z,10.90
2022-08-17T00:23:25.945Z,14.60
2022-08-17T00:25:54.581Z,10.83
2022-08-17T00:28:22.636Z,10.83
2022-08-17T00:30:53.854Z,10.70
2022-08-17T00:33:25.473Z,9.90
2022-08-17T00:35:54.676Z,10.83
2022-08-17T00:38:23.690Z,15.60
2022-08-17T00:40:59.266Z,14.50
2022-08-17T00:43:32.165Z,10.20
2022-08-17T00:46:00.792Z,12.40
2022-08-17T00:48:30.781Z,14.67
2022-08-17T00:51:04.626Z,11.50
2022-08-17T00:53:35.013Z,14.00
2022-08-17T00:56:08.747Z,13.40
2022-08-17T00:58:37.333Z,11.53
2022-08-17T01:01:07.657Z,10.60
2022-08-17T01:03:38.176Z,15.90
2022-08-17T01:06:09.057Z,11.57
2022-08-17T01:08:39.956Z,10.83
2022-08-17T01:11:09.431Z,10.30
2022-08-17T01:13:41.405Z,12.97
2022-08-17T01:16:15.912Z,10.20
2022-08-17T01:18:45.449Z,11.63
2022-08-17T01:21:21.361Z,10.07
2022-08-17T01:23:50.773Z,14.07
2022-08-17T01:26:19.310Z,13.60
2022-08-17T01:28:54.437Z,11.47
2022-08-17T01:31:29.203Z,11.30
2022-08-17T01:33:59.448Z,11.23
2022-08-17T01:36:30.465Z,9.00
2022-08-17T01:39:00.130Z,11.87
2022-08-17T01:41:29.300Z,11.13
2022-08-17T01:44:01.318Z,10.20
2022-08-17T01:46:33.399Z,11.10
2022-08-17T01:49:01.894Z,9.17
2022-08-17T01:51:32.850Z,11.20
2022-08-17T01:54:05.156Z,15.03
2022-08-17T01:56:35.145Z,10.20
2022-08-17T01:59:03.134Z,11.43
2022-08-17T02:01:34.610Z,12.27
2022-08-17T02:04:03.821Z,12.40
2022-08-17T02:06:44.995Z,10.80
2022-08-17T02:09:25.178Z,10.00
2022-08-17T02:11:54.327Z,11.90
2022-08-17T02:14:23.348Z,11.87
2022-08-17T02:16:51.823Z,10.93
2022-08-17T02:19:19.903Z,11.93
2022-08-17T02:21:50.455Z,13.27
2022-08-17T02:25:00.187Z,11.43
2022-08-17T02:27:10.901Z,14.30
2022-08-17T02:29:38.866Z,12.03
2022-08-17T02:32:07.636Z,10.50
2022-08-17T02:34:35.584Z,14.67
2022-08-17T02:37:03.485Z,13.10
2022-08-17T02:39:31.538Z,14.80
2022-08-17T02:42:02.575Z,14.33
2022-08-17T02:44:39.326Z,13.23
2022-08-17T02:47:08.666Z,11.93
2022-08-17T02:49:36.714Z,14.77
2022-08-17T02:52:06.610Z,13.50
2022-08-17T02:54:39.207Z,12.77
2022-08-17T02:57:10.701Z,12.30
2022-08-17T02:59:43.213Z,11.50
2022-08-17T03:02:16.368Z,12.70
2022-08-17T03:04:44.323Z,12.17
2022-08-17T03:07:12.825Z,10.30
2022-08-17T03:09:40.705Z,10.57
2022-08-17T03:12:11.163Z,10.40
2022-08-17T03:14:42.701Z,12.30
2022-08-17T03:17:15.887Z,12.97
2022-08-17T03:19:45.691Z,12.10
2022-08-17T03:22:36.804Z,13.30
2022-08-17T03:25:01.540Z,10.40
2022-08-17T03:27:30.024Z,10.27
2022-08-17T03:29:59.386Z,11.53
2022-08-17T03:32:27.629Z,14.27
2022-08-17T03:35:00.193Z,11.70
2022-08-17T03:37:28.323Z,13.07
2022-08-17T03:39:56.299Z,14.77
2022-08-17T03:42:32.168Z,17.00
2022-08-17T03:45:03.482Z,12.50
2022-08-17T03:47:49.233Z,11.13
2022-08-17T03:50:35.400Z,11.70
2022-08-17T03:53:24.680Z,10.03
2022-08-17T03:56:09.921Z,13.77
2022-08-17T03:58:37.879Z,15.63
2022-08-17T04:01:08.162Z,14.03
2022-08-17T04:03:36.152Z,15.77
2022-08-17T04:06:04.169Z,12.10
2022-08-17T04:08:32.574Z,10.90
2022-08-17T04:11:02.095Z,12.93
2022-08-17T04:13:30.143Z,11.73
2022-08-17T04:15:59.863Z,11.93
2022-08-17T04:18:29.178Z,15.67
2022-08-17T04:20:57.111Z,11.70
2022-08-17T04:23:32.619Z,15.17
2022-08-17T04:26:00.879Z,13.50
2022-08-17T04:28:29.972Z,11.77
2022-08-17T04:30:58.457Z,13.80
2022-08-17T04:33:28.447Z,13.97
2022-08-17T04:35:59.818Z,16.00
2022-08-17T04:38:33.488Z,11.33
2022-08-17T04:41:20.093Z,15.37
2022-08-17T04:43:49.706Z,13.23
2022-08-17T04:46:19.693Z,15.27
2022-08-17T04:48:49.995Z,14.50
2022-08-17T04:51:22.495Z,12.80
2022-08-17T04:53:54.381Z,13.20
2022-08-17T04:56:25.777Z,15.30
2022-08-17T04:58:55.825Z,14.60
2022-08-17T05:01:26.417Z,13.67
2022-08-17T05:03:56.164Z,13.90
2022-08-17T05:06:26.718Z,12.50
2022-08-17T05:08:54.802Z,15.13
2022-08-17T05:11:25.484Z,13.73
2022-08-17T05:13:53.883Z,12.33
2022-08-17T05:16:23.333Z,12.17
2022-08-17T05:18:51.488Z,12.73
2022-08-17T05:21:20.593Z,13.40
2022-08-17T05:23:56.333Z,14.63
2022-08-17T05:26:27.240Z,12.60
2022-08-17T05:29:00.395Z,13.63
2022-08-17T05:31:31.408Z,14.63
2022-08-17T05:33:59.389Z,12.27
2022-08-17T05:36:37.920Z,13.37
2022-08-17T05:39:16.203Z,14.60
2022-08-17T05:41:47.587Z,15.07
2022-08-17T05:44:15.813Z,14.83
2022-08-17T05:46:49.817Z,13.27
2022-08-17T05:49:22.184Z,10.20
2022-08-17T05:52:27.418Z,13.80
2022-08-17T05:55:06.721Z,12.37
2022-08-17T05:57:53.197Z,13.63
2022-08-17T06:00:30.714Z,14.00
2022-08-17T06:03:19.664Z,11.10
2022-08-17T06:05:59.287Z,13.40
2022-08-17T06:08:34.917Z,13.60
2022-08-17T06:11:15.975Z,10.70
2022-08-17T06:14:04.979Z,11.27
2022-08-17T06:16:37.265Z,12.20
2022-08-17T06:19:12.557Z,12.67
2022-08-17T06:21:43.918Z,12.17
2022-08-17T06:24:24.764Z,13.57
2022-08-17T06:26:56.322Z,15.60
2022-08-17T06:29:35.356Z,16.67
2022-08-17T06:32:04.242Z,15.10
2022-08-17T06:34:33.878Z,14.57
2022-08-17T06:37:09.570Z,13.27
2022-08-17T06:39:49.781Z,12.60
2022-08-17T06:42:54.619Z,16.27
2022-08-17T06:45:22.725Z,12.20
2022-08-17T06:47:56.508Z,14.53
2022-08-17T06:50:30.789Z,20.33
2022-08-17T06:53:04.428Z,13.50
2022-08-17T06:55:38.429Z,16.10
2022-08-17T06:58:15.692Z,12.20
2022-08-17T07:00:47.926Z,12.23
2022-08-17T07:03:27.480Z,14.00
2022-08-17T07:05:59.973Z,14.80
2022-08-17T07:08:35.055Z,19.17
2022-08-17T07:11:07.882Z,20.13
2022-08-17T07:13:52.996Z,16.93
2022-08-17T07:16:25.509Z,12.90
2022-08-17T07:18:55.476Z,13.20
2022-08-17T07:21:38.460Z,15.60
2022-08-17T07:24:30.842Z,15.23
2022-08-17T07:27:12.604Z,15.37
2022-08-17T07:29:51.025Z,16.07
2022-08-17T07:32:26.338Z,16.70
2022-08-17T07:35:17.347Z,14.00
2022-08-17T07:37:53.126Z,18.67
2022-08-17T07:40:31.296Z,14.50
2022-08-17T07:43:22.210Z,15.00
2022-08-17T07:46:29.680Z,12.93
2022-08-17T07:49:16.738Z,20.33
2022-08-17T07:51:57.078Z,12.20
2022-08-17T07:54:35.654Z,16.07
2022-08-17T07:57:29.887Z,14.47
2022-08-17T08:00:26.689Z,13.60
2022-08-17T08:03:21.757Z,12.43
2022-08-17T08:05:55.090Z,11.63
2022-08-17T08:08:29.120Z,16.50
2022-08-17T08:11:04.303Z,13.80
2022-08-17T08:13:33.432Z,14.43
2022-08-17T08:16:26.082Z,15.53
2022-08-17T08:18:58.510Z,11.23
2022-08-17T08:21:34.233Z,12.87
2022-08-17T08:24:19.516Z,10.33
2022-08-17T08:26:56.808Z,14.67
2022-08-17T08:29:31.333Z,13.17
2022-08-17T08:32:06.204Z,11.60
2022-08-17T08:35:01.607Z,12.47
2022-08-17T08:37:49.418Z,18.73
2022-08-17T08:40:34.436Z,20.17
2022-08-17T08:43:12.551Z,18.50
2022-08-17T08:45:57.105Z,14.97
2022-08-17T08:48:56.189Z,13.73
2022-08-17T08:51:38.164Z,13.97
2022-08-17T08:54:15.547Z,10.77
2022-08-17T08:57:21.421Z,12.87
2022-08-17T08:59:44.906Z,13.77
2022-08-17T09:02:42.686Z,12.67
2022-08-17T09:05:22.309Z,13.80
2022-08-17T09:08:02.154Z,11.87
2022-08-17T09:10:34.799Z,11.73
2022-08-17T09:13:10.097Z,15.00
2022-08-17T09:15:44.641Z,16.20
2022-08-17T09:19:00.512Z,13.73
2022-08-17T09:21:21.445Z,13.27
2022-08-17T09:24:04.866Z,13.00
2022-08-17T09:26:41.214Z,13.63
2022-08-17T09:29:16.574Z,10.50
2022-08-17T09:31:51.152Z,17.63
2022-08-17T09:34:31.899Z,13.40
2022-08-17T09:37:14.996Z,9.80
2022-08-17T09:39:52.875Z,12.50
2022-08-17T09:42:27.675Z,12.47
2022-08-17T09:45:07.989Z,17.13
2022-08-17T09:47:45.427Z,11.50
2022-08-17T09:50:20.113Z,10.57
2022-08-17T09:53:09.032Z,9.73
2022-08-17T09:55:52.927Z,10.57
2022-08-17T09:58:31.142Z,10.63
2022-08-17T10:01:09.086Z,13.70
2022-08-17T10:04:00.367Z,8.60
2022-08-17T10:06:33.600Z,13.20
2022-08-17T10:09:09.670Z,10.60
2022-08-17T10:12:01.581Z,12.10
2022-08-17T10:14:37.681Z,10.43
2022-08-17T10:17:18.717Z,9.17
2022-08-17T10:19:55.917Z,9.30
2022-08-17T10:22:53.065Z,8.00
2022-08-17T10:25:54.689Z,9.00
2022-08-17T10:28:30.605Z,9.10
2022-08-17T10:31:33.320Z,12.40
2022-08-17T10:34:02.181Z,12.40
2022-08-17T10:36:43.209Z,9.97
2022-08-17T10:39:23.594Z,9.10
2022-08-17T10:41:56.742Z,14.67
2022-08-17T10:44:42.398Z,11.23
2022-08-17T10:47:13.032Z,9.87
2022-08-17T10:49:47.379Z,12.83
2022-08-17T10:52:49.265Z,8.00
2022-08-17T10:55:19.963Z,9.13
2022-08-17T10:57:50.636Z,9.63
2022-08-17T11:00:59.544Z,8.23
2022-08-17T11:03:27.826Z,8.43
2022-08-17T11:06:09.505Z,10.10
2022-08-17T11:09:11.710Z,8.87
2022-08-17T11:12:07.248Z,9.17
2022-08-17T11:14:48.896Z,9.47
2022-08-17T11:17:32.609Z,7.97
2022-08-17T11:20:23.625Z,8.13
2022-08-17T11:23:10.271Z,10.50
2022-08-17T11:25:40.561Z,9.40
2022-08-17T11:28:19.816Z,9.70
2022-08-17T11:30:52.087Z,10.73
2022-08-17T11:34:02.147Z,7.57
2022-08-17T11:36:49.655Z,8.00
2022-08-17T11:39:34.336Z,11.70
2022-08-17T11:42:08.678Z,12.13
2022-08-17T11:44:52.347Z,7.60
2022-08-17T11:47:57.011Z,8.70
2022-08-17T11:51:02.881Z,7.90
2022-08-17T11:54:31.223Z,8.60
2022-08-17T11:56:52.888Z,7.90
2022-08-17T11:59:54.796Z,7.80
2022-08-17T12:02:48.234Z,9.80
2022-08-17T12:05:37.143Z,9.10
2022-08-17T12:08:14.781Z,8.37
2022-08-17T12:10:54.089Z,9.20
2022-08-17T12:13:23.702Z,10.53
2022-08-17T12:16:02.292Z,8.77
2022-08-17T12:18:35.663Z,10.53
2022-08-17T12:21:28.278Z,10.63
2022-08-17T12:24:03.269Z,9.20
2022-08-17T12:26:33.885Z,12.57
2022-08-17T12:29:04.400Z,10.13
2022-08-17T12:31:37.634Z,9.83
2022-08-17T12:34:06.038Z,11.80
2022-08-17T12:36:36.512Z,10.10
2022-08-17T12:39:13.797Z,9.03
2022-08-17T12:41:46.808Z,7.23
2022-08-17T12:44:18.158Z,9.23
2022-08-17T12:46:50.514Z,7.27
2022-08-17T12:49:31.896Z,6.57
2022-08-17T12:52:15.203Z,7.13
2022-08-17T12:54:50.466Z,7.60
2022-08-17T12:57:21.609Z,6.60
2022-08-17T12:59:54.276Z,7.27
2022-08-17T13:02:42.307Z,8.00
2022-08-17T13:05:20.945Z,7.23
2022-08-17T13:07:50.924Z,7.43
2022-08-17T13:10:23.130Z,8.90
2022-08-17T13:12:52.438Z,6.83
2022-08-17T13:15:29.668Z,6.57
2022-08-17T13:18:02.131Z,7.13
2022-08-17T13:20:30.160Z,7.70
2022-08-17T13:23:01.603Z,6.87
2022-08-17T13:25:30.929Z,8.33
2022-08-17T13:27:59.289Z,6.93
2022-08-17T13:30:32.588Z,7.17
2022-08-17T13:33:04.137Z,6.33
2022-08-17T13:35:41.917Z,6.57
2022-08-17T13:38:16.731Z,6.87
2022-08-17T13:40:50.236Z,12.30
2022-08-17T13:43:40.938Z,7.40
2022-08-17T13:46:11.960Z,6.90
2022-08-17T13:48:40.325Z,7.57
2022-08-17T13:51:33.522Z,6.93
2022-08-17T13:54:20.033Z,7.67
2022-08-17T13:56:58.745Z,10.93
2022-08-17T13:59:53.275Z,8.23
2022-08-17T14:02:21.079Z,15.33
2022-08-17T14:04:49.289Z,7.50
2022-08-17T14:07:29.602Z,8.80
2022-08-17T14:10:03.207Z,8.37
2022-08-17T14:12:34.296Z,10.57
2022-08-17T14:15:03.327Z,7.80
2022-08-17T14:17:36.549Z,11.80
2022-08-17T14:20:09.457Z,8.33
2022-08-17T14:22:40.188Z,8.70
2022-08-17T14:25:10.887Z,8.60
2022-08-17T14:27:51.819Z,7.97
2022-08-17T14:30:24.216Z,8.03
2022-08-17T14:32:53.609Z,7.93
2022-08-17T14:35:24.387Z,6.77
2022-08-17T14:37:53.401Z,6.40
2022-08-17T14:40:25.410Z,6.70
2022-08-17T14:42:55.214Z,7.23
2022-08-17T14:45:29.980Z,6.10
2022-08-17T14:48:00.414Z,5.67
2022-08-17T14:50:28.373Z,6.40
2022-08-17T14:52:57.960Z,8.17
2022-08-17T14:55:29.728Z,7.47
2022-08-17T14:57:58.000Z,11.80
2022-08-17T15:00:26.834Z,7.57
2022-08-17T15:02:58.864Z,8.20
2022-08-17T15:05:31.417Z,11.43
2022-08-17T15:07:59.778Z,6.53
2022-08-17T15:10:29.766Z,5.50
2022-08-17T15:12:58.115Z,5.30
2022-08-17T15:15:26.751Z,6.80
2022-08-17T15:17:55.790Z,6.80
2022-08-17T15:20:26.723Z,7.40
2022-08-17T15:22:57.101Z,7.77
2022-08-17T15:25:26.100Z,6.37
2022-08-17T15:27:55.949Z,9.50
2022-08-17T15:30:25.700Z,6.87
2022-08-17T15:32:55.548Z,9.00
2022-08-17T15:35:28.731Z,18.00
2022-08-17T15:38:08.072Z,10.43
2022-08-17T15:40:41.632Z,7.80
2022-08-17T15:43:13.239Z,8.83
2022-08-17T15:45:41.516Z,5.10
2022-08-17T15:48:09.940Z,6.33
2022-08-17T15:50:38.406Z,19.63
2022-08-17T15:53:06.334Z,19.30
2022-08-17T15:55:36.625Z,13.37
2022-08-17T15:58:04.763Z,11.67
2022-08-17T16:00:36.400Z,9.77
2022-08-17T16:03:59.386Z,7.90
2022-08-17T16:06:09.508Z,7.53
2022-08-17T16:08:41.506Z,8.50
2022-08-17T16:11:09.905Z,7.73
2022-08-17T16:13:39.654Z,8.82
2022-08-17T16:16:10.326Z,7.47
2022-08-17T16:18:39.461Z,8.40
2022-08-17T16:21:29.682Z,9.37
2022-08-17T16:24:02.225Z,11.27
2022-08-17T16:26:32.086Z,6.22
2022-08-17T16:29:02.134Z,5.27
2022-08-17T16:31:32.246Z,5.70
2022-08-17T16:34:15.722Z,6.78
2022-08-17T16:36:55.763Z,6.07
2022-08-17T16:39:25.994Z,6.50
2022-08-17T16:41:54.093Z,8.88
2022-08-17T16:44:22.963Z,6.38
2022-08-17T16:46:52.410Z,6.47
2022-08-17T16:49:35.261Z,6.03
2022-08-17T16:52:06.664Z,5.80
2022-08-17T16:54:35.455Z,8.70
2022-08-17T16:57:05.013Z,6.38
2022-08-17T16:59:42.146Z,5.90
2022-08-17T17:02:14.997Z,6.25
2022-08-17T17:04:51.574Z,7.10
2022-08-17T17:07:49.611Z,7.00
2022-08-17T17:10:21.329Z,7.10
2022-08-17T17:13:02.594Z,7.63
2022-08-17T17:15:45.941Z,8.13
2022-08-17T17:18:16.963Z,6.90
2022-08-17T17:20:54.670Z,7.47
2022-08-17T17:23:36.410Z,6.00
2022-08-17T17:26:24.575Z,17.10
2022-08-17T17:29:03.938Z,8.60
2022-08-17T17:31:38.062Z,7.50
2022-08-17T17:34:11.680Z,7.20
2022-08-17T17:36:42.991Z,7.50
2022-08-17T17:39:14.270Z,6.73
2022-08-17T17:41:47.584Z,8.00
2022-08-17T17:44:19.891Z,10.97
2022-08-17T17:46:52.059Z,11.10
2022-08-17T17:49:22.009Z,8.20
2022-08-17T17:52:09.683Z,11.03
2022-08-17T17:54:58.335Z,9.23
2022-08-17T17:57:36.142Z,8.30
2022-08-17T18:00:09.181Z,11.70
2022-08-17T18:02:54.498Z,8.50
2022-08-17T18:05:53.679Z,11.53
2022-08-17T18:08:37.540Z,10.37
2022-08-17T18:11:23.940Z,9.53
2022-08-17T18:14:14.393Z,9.97
2022-08-17T18:16:43.217Z,10.87
2022-08-17T18:19:14.146Z,10.00
2022-08-17T18:21:46.899Z,7.73
2022-08-17T18:24:15.034Z,10.00
2022-08-17T18:26:48.002Z,10.83
2022-08-17T18:29:25.013Z,8.10
2022-08-17T18:32:16.001Z,7.43
2022-08-17T18:34:47.783Z,11.60
2022-08-17T18:37:36.196Z,10.20
2022-08-17T18:40:31.585Z,14.60
2022-08-17T18:43:04.835Z,14.00
2022-08-17T18:45:38.193Z,13.47
2022-08-17T18:48:17.633Z,11.30
2022-08-17T18:50:46.122Z,9.73
2022-08-17T18:53:38.221Z,11.20
2022-08-17T18:56:25.794Z,9.03
2022-08-17T18:59:03.520Z,7.77
2022-08-17T19:01:53.759Z,11.13
2022-08-17T19:04:34.977Z,11.73
2022-08-17T19:07:09.776Z,11.50
2022-08-17T19:09:43.766Z,9.50
2022-08-17T19:12:27.021Z,10.87
2022-08-17T19:14:57.918Z,8.70
2022-08-17T19:17:33.221Z,13.83
2022-08-17T19:20:06.829Z,9.73
2022-08-17T19:22:46.518Z,9.50
2022-08-17T19:25:20.033Z,14.73
2022-08-17T19:27:57.810Z,11.60
2022-08-17T19:30:26.518Z,9.33
2022-08-17T19:32:57.652Z,11.87
2022-08-17T19:35:34.489Z,10.03
2022-08-17T19:38:13.348Z,11.70
2022-08-17T19:41:00.894Z,9.87
2022-08-17T19:43:47.883Z,15.60
2022-08-17T19:46:26.053Z,14.27
2022-08-17T19:49:07.062Z,12.00
2022-08-17T19:51:40.878Z,12.67
2022-08-17T19:54:16.149Z,15.80
2022-08-17T19:56:55.664Z,12.90
2022-08-17T19:59:36.041Z,12.20
2022-08-17T20:02:23.041Z,12.67
2022-08-17T20:04:54.166Z,14.40
2022-08-17T20:07:26.762Z,14.10
2022-08-17T20:10:00.230Z,11.00
2022-08-17T20:12:34.764Z,15.50
2022-08-17T20:15:09.394Z,18.03
2022-08-17T20:17:40.097Z,12.40
2022-08-17T20:20:20.712Z,18.80
2022-08-17T20:22:59.012Z,12.57
2022-08-17T20:25:36.533Z,13.47
2022-08-17T20:28:16.410Z,11.77
2022-08-17T20:30:44.984Z,15.03
2022-08-17T20:33:25.317Z,16.53
2022-08-17T20:36:13.004Z,15.60
2022-08-17T20:38:44.372Z,16.83
2022-08-17T20:41:16.909Z,11.77
2022-08-17T20:43:52.072Z,18.60
2022-08-17T20:46:31.072Z,15.13
2022-08-17T20:49:14.663Z,19.60
2022-08-17T20:52:01.193Z,15.50
2022-08-17T20:54:44.372Z,16.20
2022-08-17T20:57:47.755Z,15.83
2022-08-17T21:00:42.957Z,16.67
2022-08-17T21:03:50.133Z,17.17
2022-08-17T21:06:21.695Z,15.03
2022-08-17T21:08:54.332Z,15.07
2022-08-17T21:11:58.237Z,13.73
2022-08-17T21:14:56.122Z,14.33
2022-08-17T21:17:44.489Z,14.63
2022-08-17T21:20:32.158Z,12.60
2022-08-17T21:23:25.325Z,13.60
2022-08-17T21:26:12.911Z,10.70
2022-08-17T21:29:00.379Z,14.40
2022-08-17T21:31:34.761Z,16.23
2022-08-17T21:34:28.089Z,16.27
2022-08-17T21:36:57.634Z,15.83
2022-08-17T21:39:41.204Z,15.10
2022-08-17T21:42:09.338Z,12.97
2022-08-17T21:44:41.585Z,13.80
2022-08-17T21:47:19.209Z,16.90
2022-08-17T21:49:49.333Z,17.67
2022-08-17T21:52:21.345Z,13.23
2022-08-17T21:54:52.937Z,14.60
2022-08-17T21:57:23.253Z,12.90
2022-08-17T21:59:57.116Z,13.40
2022-08-17T22:02:27.920Z,14.10
2022-08-17T22:05:03.226Z,12.93
2022-08-17T22:07:37.342Z,16.93
2022-08-17T22:10:08.529Z,12.37
2022-08-17T22:12:36.595Z,15.20
2022-08-17T22:15:09.578Z,15.00
2022-08-17T22:17:46.111Z,13.00
2022-08-17T22:20:18.829Z,16.53
2022-08-17T22:23:25.025Z,16.13
2022-08-17T22:26:02.332Z,12.97
2022-08-17T22:28:43.020Z,20.17
2022-08-17T22:31:14.423Z,15.70
2022-08-17T22:33:47.551Z,14.17
2022-08-17T22:36:29.262Z,12.97
2022-08-17T22:38:59.327Z,15.33
2022-08-17T22:41:40.492Z,16.93
2022-08-17T22:44:15.333Z,17.90
2022-08-17T22:46:52.906Z,14.63
2022-08-17T22:49:29.127Z,13.37
2022-08-17T22:52:08.001Z,16.53
2022-08-17T22:54:53.700Z,15.77
2022-08-17T22:57:42.165Z,15.93
2022-08-17T23:00:29.710Z,18.73
2022-08-17T23:03:17.778Z,17.43
2022-08-17T23:05:49.776Z,17.90
2022-08-17T23:08:21.392Z,14.90
2022-08-17T23:10:50.184Z,15.60
2022-08-17T23:13:18.102Z,15.00
2022-08-17T23:15:48.093Z,13.80
2022-08-17T23:18:17.764Z,11.83
2022-08-17T23:20:46.382Z,16.03
2022-08-17T23:23:15.329Z,12.63
2022-08-17T23:25:45.771Z,19.27
2022-08-17T23:28:14.149Z,17.50
2022-08-17T23:30:44.670Z,13.33
2022-08-17T23:33:19.451Z,16.30
2022-08-17T23:35:47.356Z,14.10
2022-08-17T23:38:15.329Z,14.50
2022-08-17T23:40:44.707Z,15.20
2022-08-17T23:43:23.991Z,14.80
2022-08-17T23:45:54.950Z,16.93
2022-08-17T23:48:32.687Z,12.63
2022-08-17T23:51:09.676Z,14.93
2022-08-17T23:53:40.165Z,12.27
2022-08-17T23:56:11.295Z,13.00
2022-08-17T23:58:43.515Z,11.40
